Duenweg, Missouri
Current Conditions -  °F | °C
As of 10:53 AM on Thursday 30 Oct 2014 (Local Time) from KJLN Reporting Station
Light Rain Light Rain  
Wind Chill: 62°   Ceiling: Unl
Heat Index: 62°   Visibility: 10mi
Dew Point: 44°   Wind: 23mph
Humidity: 52%   Direction: 230°SW
Pressure: 30.07"   Gusts: 29mph
Location:  37.08°N, 94.41°W
Report Text: KJLN 301553Z 23020G25KT 10SM -RA CLR 17/07 A3007 RMK AO2 PK WND 22028/1534 RAB31 SLP180 P0000 T01670067
Loading
Personal Weather Stations






























Interactive Weather Map
Tropical Storm Tracking
New forecast layout! Learn more

10-Day Weather Forecast

Advertisements
Track Severe Weather on mobile